EGAA/BFS METAR and TAF weather

Enter ICAO airport designator
Station Type Date Time Source
EGAA METAR 2020/01/20 15:50 UTC NOAA

EGAA 201550Z 22009KT 9999 BKN023 06/05 Q1043


Station Type Date Time Source
EGAA Decoded METAR 2020/01/20 15:50 UTC NOAA

Belfast / Aldergrove Airport, United Kingdom (EGAA) 54-39N 006-13W 0M
Jan 20, 2020 - 10:50 AM EST / 2020.01.20 1550 UTC
Wind: from the SW (220 degrees) at 10 MPH (9 KT):0
Visibility: greater than 7 mile(s):0
Sky conditions: mostly cloudy
Temperature: 42 F (6 C)
Dew Point: 41 F (5 C)
Relative Humidity: 93%
Pressure (altimeter): 30.80 in. Hg (1043 hPa)
ob: EGAA 201550Z 22009KT 9999 BKN023 06/05 Q1043
cycle: 16

Station Type Date Time Source
EGAA TAF 2020/01/20 12:09 UTC NOAA

TAF TAF EGAA 201103Z 2012/2112 21010KT 9999 SCT022
BECMG 2103/2106 BKN010
BECMG 2106/2109 BKN005 PROB30
TEMPO 2109/2112 9000 BKN003

Example: see airport list